KDMO/DMO METAR and TAF weather

Enter ICAO airport designator
Station Type Date Time Source
KDMO METAR 2022/11/27 08:53 UTC NOAA

KDMO 270853Z AUTO 33012KT 2 1/2SM -RA BR OVC003 07/06 A2947 RMK AO2 SLP981 P0001 60023 T00720056 55012


Station Type Date Time Source
KDMO Decoded METAR 2022/11/27 08:53 UTC NOAA

SEDALIA MEMORIAL AIRPORT, MO, United States (KDMO) 38-43N 93-10W 274M
Nov 27, 2022 - 03:53 AM EST / 2022.11.27 0853 UTC
Wind: from the NNW (330 degrees) at 14 MPH (12 KT):0
Visibility: 2 1/2 mile(s):0
Sky conditions: overcast
Weather: light rain; mist
Precipitation last hour: 0.01 inches
Temperature: 45.0 F (7.2 C)
Dew Point: 42.1 F (5.6 C)
Relative Humidity: 89%
Pressure (altimeter): 29.47 in. Hg (997 hPa)
Pressure tendency: 0.04 inches (1.2 hPa) lower than three hours ago
ob: KDMO 270853Z AUTO 33012KT 2 1/2SM -RA BR OVC003 07/06 A2947 RMK AO2 SLP981 P0001 60023 T00720056 55012
cycle: 9

Station Type Date Time Source
KDMO TAF UTC NOAA

Error!

Example: see airport list